Time;durP1;ratioP1;P1;durP2;ratioP2;P2;SDS_P1;SDS_P2;PMS_P1;PMS_P2;Temp;Humidity;BMP_temperature;BMP_pressure;BME280_temperature;BME280_humidity;BME280_pressure;Samples;Min_cycle;Max_cycle;Signal;HPM_P1;HPM_P2
2023/09/18 00:00:08;;;;;;;2.25;1.20;;;26.70;46.10;;;;;;5087489;27;46753;-66
2023/09/18 00:02:35;;;;;;;2.45;1.20;;;26.70;46.10;;;;;;5087494;27;45307;-65
2023/09/18 00:05:03;;;;;;;1.15;1.02;;;26.70;46.20;;;;;;5087749;27;45466;-65
2023/09/18 00:07:30;;;;;;;1.90;1.10;;;26.70;46.20;;;;;;5087990;27;45377;-65
2023/09/18 00:09:57;;;;;;;1.63;1.25;;;26.60;46.20;;;;;;5087593;27;45264;-65
2023/09/18 00:12:24;;;;;;;5.75;1.38;;;26.70;46.40;;;;;;5087273;27;45251;-66
2023/09/18 00:14:51;;;;;;;1.60;1.30;;;26.60;47.20;;;;;;5087526;27;45261;-67
2023/09/18 00:17:19;;;;;;;3.65;1.80;;;26.60;46.80;;;;;;5087632;27;45455;-67
2023/09/18 00:19:45;;;;;;;3.60;1.38;;;26.60;47.20;;;;;;5087480;27;46578;-66
2023/09/18 00:22:14;;;;;;;1.17;1.08;;;26.60;47.40;;;;;;5087341;27;45331;-66
2023/09/18 00:24:41;;;;;;;2.00;1.27;;;26.60;47.60;;;;;;5087439;27;45206;-66
2023/09/18 00:27:07;;;;;;;2.95;1.23;;;26.60;48.30;;;;;;5087479;27;45319;-66
2023/09/18 00:29:34;;;;;;;4.40;1.50;;;26.50;47.70;;;;;;5087100;27;46418;-66
2023/09/18 00:32:01;;;;;;;3.05;1.30;;;26.50;47.90;;;;;;5087027;27;45428;-66
2023/09/18 00:34:30;;;;;;;1.83;1.33;;;26.50;47.90;;;;;;5086734;27;45267;-67
2023/09/18 00:36:58;;;;;;;4.10;1.13;;;26.50;47.90;;;;;;5087430;27;45446;-65
2023/09/18 00:39:27;;;;;;;1.30;1.08;;;26.50;47.90;;;;;;5086976;27;45485;-66
2023/09/18 00:41:54;;;;;;;1.70;1.00;;;26.50;47.90;;;;;;5086649;27;45302;-66
2023/09/18 00:44:21;;;;;;;3.53;1.48;;;26.50;48.00;;;;;;5086982;27;45193;-66
2023/09/18 00:46:48;;;;;;;4.82;1.30;;;26.50;48.00;;;;;;5087408;27;45391;-66
2023/09/18 00:49:15;;;;;;;1.75;1.20;;;26.50;48.10;;;;;;5086805;27;46407;-66
2023/09/18 00:51:42;;;;;;;2.60;1.00;;;26.50;48.10;;;;;;5086945;27;45417;-67
2023/09/18 00:54:09;;;;;;;2.53;1.60;;;26.50;48.20;;;;;;5086854;27;45291;-67
2023/09/18 00:56:37;;;;;;;1.25;1.02;;;26.50;48.40;;;;;;5087177;27;45419;-66
2023/09/18 00:59:04;;;;;;;3.22;1.08;;;26.50;48.30;;;;;;5086720;27;45477;-66
2023/09/18 01:01:31;;;;;;;2.03;0.93;;;26.50;48.40;;;;;;5086665;27;45387;-66
2023/09/18 01:03:58;;;;;;;5.65;1.55;;;26.50;48.60;;;;;;5086876;27;45254;-66
2023/09/18 01:06:30;;;;;;;2.28;1.20;;;26.40;48.70;;;;;;5087085;27;45161;-66
2023/09/18 01:08:57;;;;;;;3.85;1.42;;;26.40;48.90;;;;;;5086700;27;45418;-66
2023/09/18 01:11:27;;;;;;;3.03;1.60;;;26.40;48.70;;;;;;5086743;27;45287;-66
2023/09/18 01:13:58;;;;;;;1.92;1.35;;;26.40;48.80;;;;;;5086535;27;45304;-66
2023/09/18 01:16:26;;;;;;;1.50;1.20;;;26.40;48.80;;;;;;5086666;27;45254;-66
2023/09/18 01:18:53;;;;;;;1.10;1.00;;;26.40;48.90;;;;;;5086483;27;45391;-66
2023/09/18 01:21:20;;;;;;;2.53;1.23;;;26.40;48.80;;;;;;5086422;27;45336;-66
2023/09/18 01:23:49;;;;;;;2.35;1.15;;;26.40;48.90;;;;;;5086693;27;45308;-67
2023/09/18 01:26:15;;;;;;;1.42;1.00;;;26.40;49.00;;;;;;5086803;27;45605;-68
2023/09/18 01:28:42;;;;;;;1.42;1.27;;;26.30;49.00;;;;;;5086238;27;45624;-66
2023/09/18 01:31:09;;;;;;;1.48;1.35;;;26.30;49.10;;;;;;5086254;27;45416;-66
2023/09/18 01:33:36;;;;;;;4.47;1.20;;;26.30;49.20;;;;;;5086257;27;45369;-66
2023/09/18 01:36:03;;;;;;;1.33;1.20;;;26.30;49.20;;;;;;5086553;27;45493;-66
2023/09/18 01:38:30;;;;;;;4.13;1.20;;;26.30;49.30;;;;;;5086148;27;46371;-67
2023/09/18 01:40:58;;;;;;;3.33;1.50;;;26.30;49.20;;;;;;5086434;27;45647;-66
2023/09/18 01:43:25;;;;;;;1.42;1.15;;;26.30;49.20;;;;;;5085875;27;45468;-66
2023/09/18 01:45:52;;;;;;;1.38;1.10;;;26.20;49.10;;;;;;5085420;27;45419;-67
2023/09/18 01:48:19;;;;;;;3.05;1.10;;;26.20;49.20;;;;;;5086168;27;47717;-66
2023/09/18 01:50:46;;;;;;;1.30;1.00;;;26.20;49.20;;;;;;5085982;27;45177;-66
2023/09/18 01:53:13;;;;;;;1.27;1.17;;;26.20;49.20;;;;;;5086126;27;45152;-66
2023/09/18 01:55:40;;;;;;;1.30;1.20;;;26.20;49.20;;;;;;5086290;27;45415;-66
2023/09/18 01:58:10;;;;;;;3.05;1.20;;;26.20;49.40;;;;;;5085839;27;45351;-66
2023/09/18 02:00:37;;;;;;;4.10;1.40;;;26.20;49.40;;;;;;5085957;27;45309;-66
2023/09/18 02:03:04;;;;;;;1.67;1.00;;;26.20;49.50;;;;;;5085901;27;45298;-66
2023/09/18 02:05:32;;;;;;;2.55;1.48;;;26.20;49.30;;;;;;5086047;27;45532;-66
2023/09/18 02:07:59;;;;;;;4.13;1.40;;;26.20;49.60;;;;;;5085622;27;46373;-66
2023/09/18 02:10:26;;;;;;;1.27;1.17;;;26.10;49.50;;;;;;5085864;27;45165;-66
2023/09/18 02:12:52;;;;;;;0.98;0.90;;;26.10;49.60;;;;;;5085798;27;45160;-66
2023/09/18 02:15:21;;;;;;;2.17;1.08;;;26.10;49.60;;;;;;5086074;27;45442;-66
2023/09/18 02:17:47;;;;;;;2.58;1.27;;;26.10;49.60;;;;;;5085449;27;46388;-66
2023/09/18 02:20:14;;;;;;;3.22;1.30;;;26.10;49.50;;;;;;5085679;27;45399;-66
2023/09/18 02:22:41;;;;;;;2.17;1.23;;;26.10;49.60;;;;;;5085810;27;45409;-66
2023/09/18 02:25:09;;;;;;;1.52;1.20;;;26.10;49.60;;;;;;5085927;27;45321;-66
2023/09/18 02:27:36;;;;;;;2.35;1.23;;;26.10;49.80;;;;;;5085565;27;45478;-66
2023/09/18 02:30:02;;;;;;;1.73;1.20;;;26.10;49.50;;;;;;5085648;27;45360;-67
2023/09/18 02:32:31;;;;;;;2.65;1.15;;;26.00;49.70;;;;;;5085423;27;45311;-67
2023/09/18 02:34:58;;;;;;;1.83;1.10;;;26.00;49.70;;;;;;5085844;27;45319;-67
2023/09/18 02:37:25;;;;;;;2.05;1.02;;;26.00;49.80;;;;;;5085380;27;45308;-67
2023/09/18 02:39:52;;;;;;;3.22;1.35;;;26.00;50.00;;;;;;5085386;28;45374;-67
2023/09/18 02:42:18;;;;;;;2.72;1.30;;;26.00;49.80;;;;;;5085199;27;45346;-67
2023/09/18 02:44:45;;;;;;;4.53;1.38;;;26.00;49.90;;;;;;5085709;27;45413;-66
2023/09/18 02:47:12;;;;;;;3.53;1.38;;;26.00;49.90;;;;;;5085237;27;45367;-67
2023/09/18 02:49:40;;;;;;;1.95;1.05;;;26.00;49.70;;;;;;5085437;27;45401;-67
2023/09/18 02:52:07;;;;;;;3.42;1.30;;;26.00;49.80;;;;;;5085501;27;45354;-66
2023/09/18 02:54:34;;;;;;;2.20;0.90;;;26.00;49.70;;;;;;5085381;27;45256;-68
2023/09/18 02:57:01;;;;;;;2.78;1.00;;;26.00;49.70;;;;;;5087154;27;46679;-68
2023/09/18 02:59:27;;;;;;;1.88;0.98;;;26.00;49.90;;;;;;5088774;27;45346;-68
2023/09/18 03:01:54;;;;;;;2.83;1.20;;;26.00;49.80;;;;;;5088586;27;45276;-68
2023/09/18 03:04:21;;;;;;;1.52;1.08;;;25.90;49.90;;;;;;5088957;27;45352;-68
2023/09/18 03:06:50;;;;;;;3.25;1.23;;;25.90;49.90;;;;;;5088638;27;46453;-68
2023/09/18 03:09:18;;;;;;;4.10;1.35;;;25.90;49.90;;;;;;5088633;27;45244;-68
2023/09/18 03:11:45;;;;;;;2.95;1.25;;;25.90;50.00;;;;;;5088588;27;45261;-68
2023/09/18 03:14:12;;;;;;;4.47;1.40;;;25.90;50.00;;;;;;5088752;27;45383;-68
2023/09/18 03:16:39;;;;;;;0.98;0.90;;;25.90;50.30;;;;;;5088395;27;46424;-68
2023/09/18 03:19:06;;;;;;;3.03;1.30;;;25.90;50.90;;;;;;5088647;27;45303;-68
2023/09/18 03:21:35;;;;;;;1.40;0.90;;;25.90;50.20;;;;;;5088555;27;45347;-68
2023/09/18 03:24:04;;;;;;;2.45;1.27;;;25.90;50.30;;;;;;5088805;27;45265;-68
2023/09/18 03:26:30;;;;;;;3.08;1.23;;;25.80;50.30;;;;;;5088287;27;46645;-68
2023/09/18 03:28:57;;;;;;;3.17;0.95;;;25.80;50.30;;;;;;5088340;27;45186;-68
2023/09/18 03:31:24;;;;;;;1.77;1.33;;;25.80;50.30;;;;;;5088532;27;45265;-67
2023/09/18 03:33:51;;;;;;;1.48;1.30;;;25.80;50.30;;;;;;5088452;27;45278;-68
2023/09/18 03:36:18;;;;;;;1.95;1.15;;;25.80;50.40;;;;;;5088076;27;46524;-68
2023/09/18 03:38:45;;;;;;;2.22;0.90;;;25.80;51.10;;;;;;5088129;27;45392;-68
2023/09/18 03:41:13;;;;;;;1.35;1.10;;;25.80;50.50;;;;;;5088354;27;45277;-68
2023/09/18 03:43:40;;;;;;;1.30;1.10;;;25.80;50.60;;;;;;5087955;27;45430;-67
2023/09/18 03:46:07;;;;;;;1.90;1.15;;;25.70;50.50;;;;;;5087989;27;46837;-67
2023/09/18 03:48:37;;;;;;;3.45;1.10;;;25.70;50.70;;;;;;5087897;27;45328;-67
2023/09/18 03:51:04;;;;;;;2.70;1.10;;;25.70;50.60;;;;;;5088212;27;45187;-68
2023/09/18 03:53:31;;;;;;;2.42;1.20;;;25.70;50.60;;;;;;5088107;27;45325;-67
2023/09/18 03:55:58;;;;;;;3.08;1.15;;;25.70;50.70;;;;;;5087677;27;46400;-68
2023/09/18 03:58:26;;;;;;;2.63;0.82;;;25.70;50.80;;;;;;5087899;27;45288;-68
2023/09/18 04:00:53;;;;;;;1.15;1.10;;;25.70;50.80;;;;;;5087860;27;45313;-68
2023/09/18 04:03:20;;;;;;;1.65;0.93;;;25.70;51.00;;;;;;5088082;27;45378;-67
2023/09/18 04:05:47;;;;;;;2.13;1.08;;;25.70;51.00;;;;;;5087600;27;46475;-67
2023/09/18 04:08:13;;;;;;;3.20;1.42;;;25.70;51.00;;;;;;5086791;27;45247;-68
2023/09/18 04:10:40;;;;;;;2.25;1.00;;;25.60;50.90;;;;;;5088002;27;45288;-68
2023/09/18 04:13:08;;;;;;;0.90;0.90;;;25.60;50.90;;;;;;5087749;27;45254;-68
2023/09/18 04:15:37;;;;;;;1.45;1.00;;;25.60;51.00;;;;;;5087441;27;46950;-69
2023/09/18 04:18:05;;;;;;;0.77;0.77;;;25.60;51.00;;;;;;5087652;27;45375;-68
2023/09/18 04:20:32;;;;;;;1.75;0.98;;;25.60;51.10;;;;;;5087866;27;45408;-69
2023/09/18 04:23:17;;;;;;;1.58;1.20;;;25.60;51.20;;;;;;5087717;27;45356;-68
2023/09/18 04:25:45;;;;;;;1.92;1.40;;;25.60;51.20;;;;;;5087420;27;45312;-69
2023/09/18 04:28:12;;;;;;;1.20;0.93;;;25.50;51.10;;;;;;5087345;27;45360;-67
2023/09/18 04:30:41;;;;;;;2.08;1.02;;;25.50;51.20;;;;;;5087618;27;45312;-67
2023/09/18 04:33:08;;;;;;;2.08;0.82;;;25.50;51.10;;;;;;5087652;27;45253;-67
2023/09/18 04:35:34;;;;;;;3.67;1.30;;;25.50;51.20;;;;;;5087268;27;46666;-67
2023/09/18 04:38:01;;;;;;;4.18;1.00;;;25.50;51.20;;;;;;5087228;27;45261;-67
2023/09/18 04:40:31;;;;;;;1.20;1.10;;;25.50;51.30;;;;;;5087200;27;45244;-67
2023/09/18 04:42:58;;;;;;;2.30;1.08;;;25.50;52.00;;;;;;5087145;27;45240;-67
2023/09/18 04:45:25;;;;;;;3.38;0.95;;;25.50;51.30;;;;;;5087031;27;45383;-67
2023/09/18 04:47:54;;;;;;;0.98;0.73;;;25.50;51.40;;;;;;5087218;27;45301;-67
2023/09/18 04:50:21;;;;;;;1.00;0.80;;;25.50;51.30;;;;;;5087242;27;45394;-67
2023/09/18 04:52:47;;;;;;;1.38;0.98;;;25.50;51.30;;;;;;5087204;27;45467;-67
2023/09/18 04:55:14;;;;;;;1.80;0.73;;;25.50;51.40;;;;;;5086959;27;45336;-67
2023/09/18 04:57:41;;;;;;;2.75;1.08;;;25.50;51.40;;;;;;5087007;27;45224;-67
2023/09/18 05:00:12;;;;;;;1.08;0.90;;;25.50;51.50;;;;;;5087089;27;45466;-67
2023/09/18 05:02:39;;;;;;;1.88;0.82;;;25.40;51.40;;;;;;5087119;27;45411;-68
2023/09/18 05:05:09;;;;;;;0.80;0.80;;;25.40;51.40;;;;;;5086844;27;47615;-68
2023/09/18 05:07:36;;;;;;;2.53;1.00;;;25.40;51.50;;;;;;5086927;27;45324;-67
2023/09/18 05:10:04;;;;;;;0.88;0.82;;;25.40;51.40;;;;;;5086946;27;45145;-67
2023/09/18 05:12:31;;;;;;;3.33;0.98;;;25.40;51.40;;;;;;5086907;27;45506;-67
2023/09/18 05:14:59;;;;;;;1.17;0.90;;;25.40;51.50;;;;;;5086603;27;46334;-67
2023/09/18 05:17:41;;;;;;;2.15;0.75;;;25.40;51.50;;;;;;5086611;27;45330;-67
2023/09/18 05:20:13;;;;;;;1.45;1.00;;;25.40;51.70;;;;;;5086806;27;45324;-67
2023/09/18 05:22:40;;;;;;;2.15;0.90;;;25.30;51.60;;;;;;5086922;28;45258;-67
2023/09/18 05:25:07;;;;;;;1.23;1.13;;;25.30;51.60;;;;;;5086444;27;46385;-67
2023/09/18 05:27:34;;;;;;;1.48;0.75;;;25.30;51.60;;;;;;5086605;27;45439;-68
2023/09/18 05:30:01;;;;;;;2.03;0.95;;;25.30;51.70;;;;;;5086411;27;45316;-67
2023/09/18 05:32:28;;;;;;;1.85;0.90;;;25.30;51.80;;;;;;5086555;27;45412;-68
2023/09/18 05:34:54;;;;;;;1.25;1.02;;;25.30;51.80;;;;;;5086056;27;45421;-68
2023/09/18 05:37:23;;;;;;;1.65;0.73;;;25.30;51.80;;;;;;5086342;27;45366;-68
2023/09/18 05:39:50;;;;;;;1.40;1.00;;;25.30;51.80;;;;;;5086309;27;45382;-68
2023/09/18 05:42:17;;;;;;;2.83;0.90;;;25.30;52.00;;;;;;5086317;27;45296;-68
2023/09/18 05:44:44;;;;;;;2.40;0.80;;;25.30;52.00;;;;;;5086275;27;46645;-68
2023/09/18 05:47:11;;;;;;;1.60;0.88;;;25.30;52.00;;;;;;5086163;27;45209;-68
2023/09/18 05:49:37;;;;;;;2.35;0.90;;;25.30;52.00;;;;;;5086307;27;45339;-67
2023/09/18 05:52:05;;;;;;;1.00;0.90;;;25.30;51.90;;;;;;5086209;27;45425;-68
2023/09/18 05:54:33;;;;;;;2.33;1.10;;;25.20;52.00;;;;;;5083067;27;46250;-67
2023/09/18 05:57:01;;;;;;;1.60;1.15;;;25.20;51.90;;;;;;5086176;27;45311;-68
2023/09/18 05:59:28;;;;;;;1.08;0.80;;;25.20;51.80;;;;;;5086270;27;45375;-67
2023/09/18 06:01:55;;;;;;;0.82;0.77;;;25.20;51.90;;;;;;5086167;27;45377;-67
2023/09/18 06:04:23;;;;;;;2.85;0.82;;;25.20;51.90;;;;;;5085962;27;45451;-68
2023/09/18 06:06:51;;;;;;;1.95;0.70;;;25.20;52.00;;;;;;5086192;27;45655;-68
2023/09/18 06:09:18;;;;;;;1.38;1.15;;;25.20;52.00;;;;;;5086047;27;45369;-68
2023/09/18 06:11:46;;;;;;;1.33;0.93;;;25.20;52.00;;;;;;5086169;27;45450;-69
2023/09/18 06:14:13;;;;;;;1.05;0.80;;;25.20;52.20;;;;;;5085766;27;45653;-68
2023/09/18 06:16:40;;;;;;;0.77;0.77;;;25.20;52.10;;;;;;5085739;27;45201;-69
2023/09/18 06:19:07;;;;;;;1.77;0.80;;;25.20;52.20;;;;;;5086345;27;45319;-68
2023/09/18 06:21:33;;;;;;;1.02;0.75;;;25.10;52.00;;;;;;5086876;27;45325;-69
2023/09/18 06:24:00;;;;;;;2.28;0.80;;;25.10;51.90;;;;;;5085880;27;45322;-68
2023/09/18 06:26:27;;;;;;;1.33;0.80;;;25.10;52.00;;;;;;5085829;27;45321;-69
2023/09/18 06:28:55;;;;;;;1.27;0.75;;;25.10;52.00;;;;;;5085906;27;45196;-69
2023/09/18 06:31:23;;;;;;;1.50;0.88;;;25.10;52.00;;;;;;5087001;27;45300;-70
2023/09/18 06:33:50;;;;;;;2.25;0.90;;;25.10;52.00;;;;;;5089095;27;46630;-70
2023/09/18 06:36:17;;;;;;;1.83;1.10;;;25.10;52.10;;;;;;5089421;27;45313;-69
2023/09/18 06:38:43;;;;;;;2.10;0.93;;;25.10;52.00;;;;;;5089413;27;45150;-70
2023/09/18 06:41:10;;;;;;;1.42;0.98;;;25.10;52.00;;;;;;5089669;27;45404;-69
2023/09/18 06:43:37;;;;;;;2.25;0.80;;;25.10;52.00;;;;;;5088809;27;46394;-69
2023/09/18 06:46:07;;;;;;;1.70;0.70;;;25.10;52.00;;;;;;5089265;27;45494;-68
2023/09/18 06:48:34;;;;;;;1.25;0.82;;;25.10;52.00;;;;;;5089383;27;45332;-69
2023/09/18 06:51:01;;;;;;;2.22;0.90;;;25.10;52.00;;;;;;5089558;27;45526;-69
2023/09/18 06:53:28;;;;;;;1.92;0.73;;;25.10;52.00;;;;;;5089034;27;46689;-69
2023/09/18 06:55:55;;;;;;;0.85;0.85;;;25.00;51.90;;;;;;5087376;27;45348;-69
2023/09/18 06:58:22;;;;;;;1.25;0.82;;;25.00;52.00;;;;;;5084997;27;45373;-68
2023/09/18 07:00:50;;;;;;;4.45;1.17;;;25.00;52.10;;;;;;5082500;27;45396;-69
2023/09/18 07:03:18;;;;;;;2.85;0.77;;;25.00;52.40;;;;;;5085196;27;45322;-69
2023/09/18 07:05:46;;;;;;;1.63;0.88;;;25.00;52.50;;;;;;5086884;28;45424;-65
2023/09/18 07:08:13;;;;;;;4.07;0.82;;;25.00;52.60;;;;;;5085638;27;45357;-70
2023/09/18 07:10:40;;;;;;;2.05;1.00;;;25.00;52.60;;;;;;5081677;27;45399;-66
2023/09/18 07:13:08;;;;;;;2.35;0.80;;;25.00;52.60;;;;;;5086082;27;46311;-66
2023/09/18 07:15:36;;;;;;;2.03;0.98;;;25.00;52.60;;;;;;5088113;27;45334;-65
2023/09/18 07:18:03;;;;;;;0.77;0.77;;;25.00;52.60;;;;;;5088525;27;45259;-68
2023/09/18 07:20:32;;;;;;;0.60;0.60;;;25.00;52.60;;;;;;5078430;27;45391;-67
2023/09/18 07:22:59;;;;;;;1.10;0.63;;;25.00;52.60;;;;;;5084794;27;45786;-69
2023/09/18 07:25:26;;;;;;;2.15;0.85;;;25.00;52.60;;;;;;5085012;27;45501;-66
2023/09/18 07:27:52;;;;;;;0.65;0.65;;;25.00;52.90;;;;;;5087454;27;45374;-64
2023/09/18 07:30:21;;;;;;;2.25;0.75;;;25.00;52.70;;;;;;5089094;27;45458;-66
2023/09/18 07:32:48;;;;;;;2.58;1.10;;;25.00;52.70;;;;;;5086770;27;46399;-67
2023/09/18 07:35:15;;;;;;;1.08;0.82;;;25.00;52.70;;;;;;5087615;27;45317;-74
2023/09/18 07:37:46;;;;;;;1.40;0.70;;;25.00;52.70;;;;;;5087665;27;45279;-65
2023/09/18 07:40:13;;;;;;;1.08;0.80;;;25.00;52.80;;;;;;5084569;27;45351;-68
2023/09/18 07:42:40;;;;;;;0.85;0.80;;;25.00;52.70;;;;;;5084912;27;47079;-66
2023/09/18 07:45:08;;;;;;;1.35;0.77;;;25.00;52.60;;;;;;5087581;28;45398;-70
2023/09/18 07:47:35;;;;;;;1.45;0.90;;;25.00;52.60;;;;;;5086022;27;45239;-68
2023/09/18 07:50:02;;;;;;;0.98;0.98;;;25.00;52.60;;;;;;5087629;27;45315;-67
2023/09/18 07:52:29;;;;;;;2.20;0.75;;;25.00;52.80;;;;;;5078348;27;45590;-70
2023/09/18 07:54:58;;;;;;;5.72;0.82;;;25.00;52.70;;;;;;5081625;27;45503;-67
2023/09/18 07:57:25;;;;;;;1.52;0.88;;;25.00;52.70;;;;;;5078050;27;45369;-68
2023/09/18 07:59:53;;;;;;;2.72;0.90;;;25.00;52.70;;;;;;5084048;27;45934;-69
2023/09/18 08:02:21;;;;;;;1.20;0.80;;;25.00;52.90;;;;;;5080365;27;45645;-70
2023/09/18 08:04:48;;;;;;;2.45;0.93;;;25.10;52.90;;;;;;5087114;27;45264;-69
2023/09/18 08:07:15;;;;;;;4.95;0.85;;;25.10;53.10;;;;;;5080721;27;45690;-66
2023/09/18 08:09:43;;;;;;;3.55;0.70;;;25.10;53.20;;;;;;5074198;27;45424;-66
2023/09/18 08:12:11;;;;;;;5.97;1.10;;;25.10;53.90;;;;;;5074241;27;46269;-67
2023/09/18 08:14:38;;;;;;;5.25;1.10;;;25.10;53.40;;;;;;5078363;27;45377;-69
2023/09/18 08:17:07;;;;;;;1.38;0.88;;;25.10;53.50;;;;;;5082811;27;45338;-69
2023/09/18 08:19:35;;;;;;;4.28;0.70;;;25.10;53.60;;;;;;5073276;27;45368;-68
2023/09/18 08:22:03;;;;;;;4.47;0.85;;;25.10;53.50;;;;;;5074810;28;45800;-71
2023/09/18 08:24:30;;;;;;;5.72;0.82;;;25.10;53.50;;;;;;5086561;28;45489;-64
2023/09/18 08:26:57;;;;;;;1.92;1.13;;;25.10;54.30;;;;;;5081235;27;45357;-71
2023/09/18 08:29:25;;;;;;;3.72;0.98;;;25.10;53.70;;;;;;5085217;27;45327;-67
2023/09/18 08:31:52;;;;;;;4.78;1.25;;;25.10;53.50;;;;;;5084754;27;46548;-69
2023/09/18 08:34:20;;;;;;;3.53;1.00;;;25.10;53.80;;;;;;5084326;27;45489;-70
2023/09/18 08:36:47;;;;;;;1.45;0.80;;;25.10;53.80;;;;;;5082903;27;45267;-68
2023/09/18 08:39:14;;;;;;;0.88;0.88;;;25.10;53.60;;;;;;5076216;28;45445;-70
2023/09/18 08:41:44;;;;;;;3.33;1.30;;;25.10;53.90;;;;;;5085794;27;47059;-68
2023/09/18 08:44:11;;;;;;;8.23;1.08;;;25.10;54.00;;;;;;5083319;28;45544;-70
2023/09/18 08:46:39;;;;;;;3.20;1.10;;;25.10;53.90;;;;;;5083297;27;45521;-70
2023/09/18 08:49:06;;;;;;;1.27;0.90;;;25.10;53.80;;;;;;5073121;27;45524;-68
2023/09/18 08:51:34;;;;;;;2.00;1.00;;;25.10;54.40;;;;;;5085259;28;45912;-69
2023/09/18 08:54:00;;;;;;;2.45;1.00;;;25.10;53.80;;;;;;5073167;27;45422;-71
2023/09/18 08:56:27;;;;;;;4.30;1.38;;;25.10;53.90;;;;;;5075061;28;45316;-68
2023/09/18 08:58:56;;;;;;;1.75;0.95;;;25.10;53.90;;;;;;5085965;27;45521;-69
2023/09/18 09:01:23;;;;;;;4.47;1.02;;;25.10;53.90;;;;;;5078434;27;49109;-69
2023/09/18 09:03:51;;;;;;;3.50;1.10;;;25.10;54.10;;;;;;5075447;27;45799;-69
2023/09/18 09:06:18;;;;;;;2.03;1.63;;;25.10;54.10;;;;;;5082871;28;45406;-69
2023/09/18 09:08:45;;;;;;;3.22;1.33;;;25.10;54.10;;;;;;5086993;27;45379;-68
2023/09/18 09:11:12;;;;;;;1.30;1.08;;;25.10;54.10;;;;;;5082906;27;45626;-70
2023/09/18 09:13:39;;;;;;;2.67;1.20;;;25.10;54.40;;;;;;5083143;28;45446;-69
2023/09/18 09:16:06;;;;;;;2.58;1.30;;;25.10;54.50;;;;;;5086243;27;45250;-69
2023/09/18 09:18:34;;;;;;;2.13;0.95;;;25.10;54.40;;;;;;5084488;27;45532;-70
2023/09/18 09:21:04;;;;;;;4.93;1.08;;;25.10;54.30;;;;;;5082371;27;45789;-69
2023/09/18 09:23:45;;;;;;;2.45;1.58;;;25.10;54.20;;;;;;5086543;27;45261;-68
2023/09/18 09:26:16;;;;;;;4.88;1.63;;;25.10;54.40;;;;;;5072317;27;45338;-68
2023/09/18 09:28:43;;;;;;;6.38;1.92;;;25.10;54.40;;;;;;5076916;28;45447;-69
2023/09/18 09:31:11;;;;;;;5.35;2.00;;;25.10;54.50;;;;;;5082179;27;46691;-69
2023/09/18 09:33:40;;;;;;;3.92;2.10;;;25.10;54.30;;;;;;5084038;27;45365;-70
2023/09/18 09:36:08;;;;;;;5.82;2.67;;;25.10;54.30;;;;;;5077082;27;45319;-72
2023/09/18 09:38:36;;;;;;;7.63;2.75;;;25.10;54.40;;;;;;5077115;28;45545;-70
2023/09/18 09:41:06;;;;;;;6.88;3.40;;;25.10;54.30;;;;;;5076163;28;45378;-71
2023/09/18 09:43:33;;;;;;;6.47;3.38;;;25.10;54.30;;;;;;5087053;27;45354;-70
2023/09/18 09:46:01;;;;;;;9.18;3.28;;;25.10;54.50;;;;;;5084083;27;45462;-71
2023/09/18 09:48:30;;;;;;;11.30;4.13;;;25.10;54.50;;;;;;5083845;27;45382;-68
2023/09/18 09:50:59;;;;;;;8.65;3.53;;;25.10;54.60;;;;;;5085823;27;45350;-68
2023/09/18 09:53:46;;;;;;;10.93;3.90;;;25.10;54.40;;;;;;5081420;28;45529;-70
2023/09/18 09:56:14;;;;;;;13.70;5.00;;;25.20;54.60;;;;;;5081021;27;45401;-68
2023/09/18 09:58:43;;;;;;;12.52;5.10;;;25.20;54.60;;;;;;5084973;27;45249;-69
2023/09/18 10:01:17;;;;;;;17.52;6.28;;;25.20;54.60;;;;;;5076843;27;46400;-70
2023/09/18 10:03:44;;;;;;;16.90;6.85;;;25.20;54.40;;;;;;5085148;28;45488;-73
2023/09/18 10:06:12;;;;;;;18.92;7.80;;;25.20;54.60;;;;;;5081514;27;45557;-67
2023/09/18 10:08:39;;;;;;;20.25;8.75;;;25.20;54.70;;;;;;5079033;28;45233;-68
2023/09/18 10:11:11;;;;;;;22.33;8.23;;;25.20;54.60;;;;;;5079388;28;45429;-69
2023/09/18 10:13:42;;;;;;;22.10;9.30;;;25.20;54.60;;;;;;5073196;28;45543;-69
2023/09/18 10:16:10;;;;;;;21.98;8.02;;;25.20;54.60;;;;;;5084690;27;45379;-69
2023/09/18 10:18:40;;;;;;;24.77;8.52;;;25.20;54.50;;;;;;5085112;27;45357;-69
2023/09/18 10:21:10;;;;;;;21.73;8.55;;;25.20;54.60;;;;;;5084221;27;45605;-69
2023/09/18 10:23:51;;;;;;;23.15;8.20;;;25.20;54.70;;;;;;5074743;28;45478;-72
2023/09/18 10:26:24;;;;;;;23.75;8.75;;;25.20;54.80;;;;;;5076657;28;45326;-70
2023/09/18 10:28:52;;;;;;;22.15;8.20;;;25.20;55.00;;;;;;5069847;28;45657;-71
2023/09/18 10:31:20;;;;;;;18.42;7.55;;;25.20;54.70;;;;;;5078798;28;45654;-70
2023/09/18 10:33:46;;;;;;;20.30;8.00;;;25.30;54.70;;;;;;5082792;27;45486;-71
2023/09/18 10:36:14;;;;;;;16.10;7.40;;;25.30;54.70;;;;;;5085424;27;45680;-67
2023/09/18 10:38:40;;;;;;;23.02;7.70;;;25.30;55.10;;;;;;5083959;27;45187;-69
2023/09/18 10:41:08;;;;;;;15.02;6.28;;;25.30;54.60;;;;;;5079313;27;45332;-68
2023/09/18 10:43:37;;;;;;;16.50;6.25;;;25.30;54.60;;;;;;5076500;28;45579;-68
2023/09/18 10:46:04;;;;;;;16.48;6.32;;;25.30;54.60;;;;;;5077654;28;45427;-67
2023/09/18 10:48:31;;;;;;;13.98;6.03;;;25.30;54.60;;;;;;5081744;27;45380;-68
2023/09/18 10:50:58;;;;;;;15.32;5.63;;;25.30;54.40;;;;;;5084651;27;46387;-67
2023/09/18 10:53:26;;;;;;;10.77;5.03;;;25.40;54.50;;;;;;5082361;27;45581;-69
2023/09/18 10:55:54;;;;;;;11.23;4.30;;;25.40;54.50;;;;;;5076162;28;45330;-70
2023/09/18 10:58:25;;;;;;;14.48;4.68;;;25.40;54.50;;;;;;5082155;27;45480;-70
2023/09/18 11:00:54;;;;;;;10.70;4.55;;;25.40;54.30;;;;;;5079547;27;46409;-69
2023/09/18 11:03:23;;;;;;;10.57;4.57;;;25.40;54.60;;;;;;5084001;27;45145;-68
2023/09/18 11:06:02;;;;;;;12.63;4.70;;;25.50;54.60;;;;;;5081862;27;45589;-70
2023/09/18 11:08:31;;;;;;;13.88;4.80;;;25.50;54.90;;;;;;5081554;28;45464;-67
2023/09/18 11:11:04;;;;;;;15.60;5.07;;;25.50;54.90;;;;;;5079311;27;46729;-68
2023/09/18 11:13:31;;;;;;;13.35;4.32;;;25.50;55.10;;;;;;5080503;27;45277;-67
2023/09/18 11:16:14;;;;;;;11.48;4.60;;;25.50;54.90;;;;;;5066033;27;46397;-67
2023/09/18 11:18:41;;;;;;;10.00;4.15;;;25.50;55.10;;;;;;5083868;27;45590;-67
2023/09/18 11:21:09;;;;;;;8.40;4.43;;;25.50;55.10;;;;;;5083764;27;46802;-67
2023/09/18 11:23:36;;;;;;;10.80;4.07;;;25.50;55.10;;;;;;5083240;27;45626;-68
2023/09/18 11:26:06;;;;;;;8.05;3.30;;;25.50;54.90;;;;;;5084977;27;45646;-68
2023/09/18 11:28:32;;;;;;;9.70;3.90;;;25.60;54.80;;;;;;5087933;27;45564;-66
2023/09/18 11:31:00;;;;;;;10.02;4.10;;;25.60;54.90;;;;;;5088390;27;45439;-68
2023/09/18 11:33:38;;;;;;;6.82;3.45;;;25.60;54.80;;;;;;5087360;27;45398;-67
2023/09/18 11:36:07;;;;;;;9.63;3.47;;;25.60;54.90;;;;;;5087758;27;45321;-67
2023/09/18 11:38:35;;;;;;;13.73;4.10;;;25.60;54.80;;;;;;5088325;27;45387;-68
2023/09/18 11:41:23;;;;;;;12.00;5.40;;;25.70;54.90;;;;;;5087293;27;45578;-66
2023/09/18 11:43:50;;;;;;;9.43;4.15;;;25.70;54.60;;;;;;5080580;28;45541;-67
2023/09/18 11:46:19;;;;;;;13.88;4.60;;;25.70;54.60;;;;;;5082010;28;45410;-67
2023/09/18 11:48:49;;;;;;;10.13;4.20;;;25.70;54.60;;;;;;5087674;27;45391;-67
2023/09/18 11:51:21;;;;;;;8.73;4.45;;;25.70;54.60;;;;;;5087733;27;46365;-66
2023/09/18 11:53:48;;;;;;;10.40;5.10;;;25.70;54.80;;;;;;5086626;27;45555;-66
2023/09/18 11:56:17;;;;;;;9.82;4.40;;;25.70;54.70;;;;;;5087507;27;45298;-66
2023/09/18 11:58:47;;;;;;;11.65;5.22;;;25.70;54.80;;;;;;5086818;28;45478;-66
2023/09/18 12:01:15;;;;;;;10.45;5.32;;;25.70;55.00;;;;;;5085611;28;45666;-68
2023/09/18 12:03:42;;;;;;;14.02;5.40;;;25.70;54.90;;;;;;5087501;27;45241;-66
2023/09/18 12:06:12;;;;;;;11.75;5.05;;;25.70;54.90;;;;;;5086220;27;45224;-67
2023/09/18 12:08:39;;;;;;;10.93;5.03;;;25.70;54.80;;;;;;5087201;27;45455;-68
2023/09/18 12:11:06;;;;;;;8.38;4.50;;;25.70;54.90;;;;;;5086506;27;45317;-67
2023/09/18 12:13:33;;;;;;;10.02;5.47;;;25.70;54.60;;;;;;5087560;27;45466;-67
2023/09/18 12:16:01;;;;;;;8.98;4.45;;;25.70;54.70;;;;;;5088557;27;45439;-67
2023/09/18 12:18:29;;;;;;;8.40;4.75;;;25.70;54.80;;;;;;5087689;27;45494;-68
2023/09/18 12:20:58;;;;;;;10.05;4.82;;;25.70;54.80;;;;;;5086561;27;46382;-68
2023/09/18 12:23:28;;;;;;;10.00;4.70;;;25.70;54.70;;;;;;5083342;28;45898;-67
2023/09/18 12:25:59;;;;;;;7.95;5.40;;;25.70;54.80;;;;;;5088974;27;45241;-68
2023/09/18 12:28:28;;;;;;;11.27;4.20;;;25.70;54.70;;;;;;5088446;27;45331;-67
2023/09/18 12:30:56;;;;;;;10.25;5.18;;;25.70;54.70;;;;;;5086929;27;46670;-68
2023/09/18 12:33:23;;;;;;;8.50;4.47;;;25.70;54.70;;;;;;5085694;27;45383;-68
2023/09/18 12:35:51;;;;;;;7.45;4.50;;;25.80;55.40;;;;;;5083552;27;45421;-68
2023/09/18 12:38:19;;;;;;;7.30;4.07;;;25.80;54.70;;;;;;5087887;27;45432;-68
2023/09/18 12:40:48;;;;;;;7.45;4.65;;;25.80;54.70;;;;;;5084698;27;45418;-68
2023/09/18 12:43:15;;;;;;;11.55;4.70;;;25.80;54.60;;;;;;5088516;27;45309;-67
2023/09/18 12:45:42;;;;;;;8.98;4.50;;;25.90;54.50;;;;;;5085674;27;45469;-67
2023/09/18 12:48:10;;;;;;;8.05;4.38;;;25.90;54.30;;;;;;5084986;27;45430;-69